Time;durP1;ratioP1;P1;durP2;ratioP2;P2;SDS_P1;SDS_P2;PMS_P1;PMS_P2;Temp;Humidity;BMP_temperature;BMP_pressure;BME280_temperature;BME280_humidity;BME280_pressure;Samples;Min_cycle;Max_cycle;Signal;HPM_P1;HPM_P2
2023/01/04 00:00:43;;;;;;;31.48;7.68;;;;;;;1.55;89.53;100789.06;10236391;29;20051;-90
2023/01/04 00:05:46;;;;;;;20.45;9.55;;;;;;;1.51;90.16;100777.94;10275262;28;20435;-89
2023/01/04 00:10:47;;;;;;;20.48;8.38;;;;;;;1.41;90.02;100750.69;10291471;28;20050;-92
2023/01/04 00:15:48;;;;;;;21.73;8.90;;;;;;;1.60;89.33;100789.59;10256588;28;20476;-90
2023/01/04 00:20:48;;;;;;;20.13;8.98;;;;;;;1.11;89.21;100720.31;10235704;29;20044;-90
2023/01/04 00:25:49;;;;;;;18.50;8.52;;;;;;;0.93;89.24;100686.63;10234960;29;20499;-88
2023/01/04 00:30:50;;;;;;;21.13;8.82;;;;;;;0.84;88.81;100675.81;10235406;29;20047;-90
2023/01/04 00:35:51;;;;;;;15.38;8.77;;;;;;;1.39;89.11;100764.81;10233738;29;20062;-89
2023/01/04 00:40:51;;;;;;;18.05;8.43;;;;;;;1.50;89.20;100778.06;10234178;29;20110;-91
2023/01/04 00:45:53;;;;;;;15.90;8.20;;;;;;;0.85;88.80;100671.44;10235298;28;20055;-90
2023/01/04 00:50:53;;;;;;;14.95;7.93;;;;;;;1.42;88.81;100769.84;10242803;29;20039;-90
2023/01/04 00:55:59;;;;;;;19.20;8.80;;;;;;;1.24;89.54;100746.53;10241869;29;20051;-90
2023/01/04 01:01:04;;;;;;;35.30;9.63;;;;;;;1.15;90.88;100705.25;10259106;29;20067;-91
2023/01/04 01:06:07;;;;;;;20.80;8.23;;;;;;;1.60;90.29;100748.53;10243347;29;20061;-91
2023/01/04 01:11:09;;;;;;;15.82;8.75;;;;;;;1.60;89.88;100755.56;10242046;29;20081;-91
2023/01/04 01:16:13;;;;;;;22.52;8.77;;;;;;;1.00;89.94;100659.16;10259338;29;20055;-90
2023/01/04 01:21:18;;;;;;;15.85;9.15;;;;;;;1.29;89.86;100710.44;10242029;29;20118;-91
2023/01/04 01:26:21;;;;;;;15.60;8.48;;;;;;;1.54;89.48;100758.59;10241272;29;20143;-89
2023/01/04 01:31:24;;;;;;;18.02;9.27;;;;;;;0.87;89.56;100674.81;10241473;29;20047;-90
2023/01/04 01:36:26;;;;;;;26.87;11.30;;;;;;;1.34;89.38;100746.78;10241604;29;20062;-90
2023/01/04 01:41:32;;;;;;;26.67;11.98;;;;;;;0.82;90.56;100667.22;10239031;29;20404;-90
2023/01/04 01:46:38;;;;;;;26.65;12.13;;;;;;;1.35;90.58;100736.22;10257936;29;20522;-90
2023/01/04 01:51:41;;;;;;;18.20;8.82;;;;;;;1.04;89.87;100712.94;10240986;29;20499;-91
2023/01/04 01:56:45;;;;;;;19.42;9.25;;;;;;;1.23;90.22;100747.47;10240439;28;20051;-87
2023/01/04 02:01:46;;;;;;;19.60;9.00;;;;;;;1.10;89.69;100743.94;10239264;29;20055;-91
2023/01/04 02:06:51;;;;;;;19.58;10.38;;;;;;;0.85;90.20;100726.34;10239633;29;20054;-90
2023/01/04 02:11:52;;;;;;;26.73;11.30;;;;;;;0.53;89.88;100671.66;10239244;29;20538;-90
2023/01/04 02:17:31;;;;;;;22.58;11.20;;;;;;;1.01;91.15;100744.53;10239656;29;20126;-90
2023/01/04 02:22:47;;;;;;;30.00;11.60;;;;;;;0.42;89.75;100664.50;10255218;29;20054;-90
2023/01/04 02:28:06;;;;;;;27.77;13.70;;;;;;;0.66;88.97;100740.59;10255164;29;20076;-90
2023/01/04 02:33:12;;;;;;;27.98;12.63;;;;;;;-0.42;88.82;100591.25;10238894;29;20503;-90
2023/01/04 02:38:27;;;;;;;22.40;9.80;;;;;;;0.42;89.60;100735.09;10256082;29;20518;-90
2023/01/04 02:54:26;;;;;;;26.88;13.43;;;;;;;0.26;90.15;100742.16;10255969;29;20046;-91
2023/01/04 02:59:35;;;;;;;25.73;12.43;;;;;;;0.30;89.77;100738.44;10238383;29;20063;-92
2023/01/04 03:10:32;;;;;;;22.13;10.30;;;;;;;0.25;90.75;100735.25;10256389;28;20074;-91
2023/01/04 03:15:37;;;;;;;22.88;11.05;;;;;;;-0.35;90.26;100651.81;10237943;29;20467;-92
2023/01/04 03:20:38;;;;;;;21.10;10.15;;;;;;;0.22;90.52;100735.44;10235797;29;20043;-92
2023/01/04 03:36:57;;;;;;;18.90;9.63;;;;;;;0.27;91.77;100699.44;10254393;29;20051;-91
2023/01/04 03:53:25;;;;;;;23.45;10.10;;;;;;;0.20;90.04;100724.22;10252830;29;20526;-90
2023/01/04 03:58:26;;;;;;;25.15;9.75;;;;;;;0.07;90.35;100699.78;10236153;29;20055;-90
2023/01/04 04:08:47;;;;;;;29.23;9.15;;;;;;;-0.36;90.38;100665.75;10252534;29;20058;-88
2023/01/04 04:13:50;;;;;;;21.27;12.60;;;;;;;-0.24;91.12;100657.19;10234641;29;20388;-89
2023/01/04 04:18:50;;;;;;;23.25;12.57;;;;;;;-0.24;90.96;100665.03;10235543;29;20047;-89
2023/01/04 04:23:54;;;;;;;19.92;10.73;;;;;;;-0.35;91.19;100643.97;10234272;29;20047;-91
2023/01/04 04:28:55;;;;;;;18.88;9.55;;;;;;;-0.41;91.26;100620.84;10231071;29;20081;-90
2023/01/04 04:33:56;;;;;;;22.83;9.32;;;;;;;-0.48;91.10;100600.31;10245118;29;20138;-83
2023/01/04 04:38:56;;;;;;;21.08;10.40;;;;;;;-0.29;91.14;100635.78;10195816;29;20058;-86
2023/01/04 04:43:58;;;;;;;23.08;9.13;;;;;;;0.34;91.81;100703.34;10245735;29;20051;-88
2023/01/04 04:48:59;;;;;;;16.58;7.93;;;;;;;0.12;91.21;100656.78;10250925;29;20079;-88
2023/01/04 04:54:01;;;;;;;18.67;8.75;;;;;;;0.11;91.41;100636.81;10250868;29;20051;-89
2023/01/04 04:59:03;;;;;;;16.58;7.75;;;;;;;0.29;92.00;100640.06;10233354;29;20142;-88
2023/01/04 05:04:05;;;;;;;14.93;7.60;;;;;;;0.25;91.82;100598.56;10251138;29;20150;-87
2023/01/04 05:09:06;;;;;;;16.95;9.07;;;;;;;1.10;91.24;100699.47;10233870;29;20102;-86
2023/01/04 05:14:08;;;;;;;26.63;11.38;;;;;;;0.98;91.02;100635.69;10246448;29;20066;-88
2023/01/04 05:19:08;;;;;;;18.50;8.70;;;;;;;1.26;90.65;100632.13;10233504;29;20103;-89
2023/01/04 05:24:11;;;;;;;18.58;8.23;;;;;;;1.37;90.68;100613.06;10239188;29;20098;-87
2023/01/04 05:30:49;;;;;;;26.92;8.93;;;;;;;1.87;90.01;100668.22;10249780;29;20195;-87
2023/01/04 05:34:32;;;;;;;21.90;9.15;;;;;;;1.88;89.88;100638.47;10215189;29;20059;-84
2023/01/04 05:39:33;;;;;;;22.85;10.98;;;;;;;2.64;89.22;100724.91;10217344;29;20043;-85
2023/01/04 05:44:34;;;;;;;18.10;8.77;;;;;;;2.59;89.41;100707.81;10226547;29;20063;-90
2023/01/04 05:49:35;;;;;;;15.27;8.32;;;;;;;1.64;89.31;100592.03;10233372;28;20146;-86
2023/01/04 05:54:35;;;;;;;26.67;9.05;;;;;;;1.97;90.16;100627.34;10250398;28;20146;-88
2023/01/04 05:59:37;;;;;;;14.98;6.45;;;;;;;2.54;90.13;100726.47;10230851;29;20054;-79
2023/01/04 06:04:38;;;;;;;15.63;8.00;;;;;;;2.90;89.61;100720.47;10241774;28;20051;-86
2023/01/04 06:09:39;;;;;;;13.85;7.70;;;;;;;3.38;89.10;100714.38;10244793;28;20051;-86
2023/01/04 06:14:40;;;;;;;14.77;7.72;;;;;;;3.54;88.68;100661.56;10243530;28;20055;-86
2023/01/04 06:19:40;;;;;;;17.52;7.88;;;;;;;4.30;87.93;100704.81;10250386;28;20066;-86
2023/01/04 06:24:41;;;;;;;13.18;7.10;;;;;;;4.56;87.13;100698.34;10236834;28;20078;-84
2023/01/04 06:29:42;;;;;;;13.45;7.20;;;;;;;4.90;86.75;100702.75;10225551;29;20486;-86
2023/01/04 06:34:43;;;;;;;15.00;7.90;;;;;;;4.62;85.53;100619.91;10255916;29;20588;-81
2023/01/04 06:39:44;;;;;;;14.35;7.28;;;;;;;5.48;85.49;100690.13;10244655;28;20051;-74
2023/01/04 06:44:45;;;;;;;14.77;7.40;;;;;;;5.34;84.57;100601.69;10236359;28;20463;-78
2023/01/04 06:49:46;;;;;;;12.50;6.28;;;;;;;5.41;83.85;100544.88;10244745;28;20055;-79
2023/01/04 06:54:47;;;;;;;10.57;6.22;;;;;;;6.21;83.58;100632.16;10242750;28;20047;-77
2023/01/04 06:59:47;;;;;;;10.55;6.53;;;;;;;6.43;82.79;100628.47;10217786;28;20085;-79
2023/01/04 07:04:48;;;;;;;21.30;7.50;;;;;;;6.97;81.81;100682.66;10242024;29;20055;-78
2023/01/04 07:09:49;;;;;;;9.68;6.28;;;;;;;7.22;81.70;100679.53;10240890;28;20114;-88
2023/01/04 07:14:50;;;;;;;19.30;6.18;;;;;;;7.59;80.66;100670.88;10247666;29;20051;-80
2023/01/04 07:19:51;;;;;;;13.05;5.57;;;;;;;7.87;79.67;100647.19;10254439;29;20051;-86
2023/01/04 07:24:52;;;;;;;15.35;5.47;;;;;;;7.73;78.80;100592.94;10235571;29;20443;-82
2023/01/04 07:29:52;;;;;;;12.18;5.10;;;;;;;8.65;77.85;100667.13;10254050;29;20043;-82
2023/01/04 07:34:53;;;;;;;7.32;4.72;;;;;;;8.97;76.82;100663.16;10252197;29;20146;-81
2023/01/04 07:39:54;;;;;;;7.22;4.75;;;;;;;9.12;76.33;100658.16;10233263;29;20138;-81
2023/01/04 07:44:55;;;;;;;8.75;5.10;;;;;;;9.09;76.14;100618.72;10253279;29;20145;-81
2023/01/04 07:49:56;;;;;;;18.58;5.53;;;;;;;9.33;75.65;100637.50;10248511;28;20073;-81
2023/01/04 07:54:56;;;;;;;8.30;5.35;;;;;;;9.14;75.83;100588.13;10252297;28;20522;-81
2023/01/04 07:59:57;;;;;;;8.60;5.80;;;;;;;8.90;75.35;100551.63;10251884;29;20446;-81
2023/01/04 08:04:58;;;;;;;9.30;6.18;;;;;;;9.58;74.89;100638.53;10253031;29;20186;-82
2023/01/04 08:09:59;;;;;;;11.65;6.72;;;;;;;9.18;74.28;100540.09;10252234;29;20051;-82
2023/01/04 08:15:00;;;;;;;10.18;6.43;;;;;;;9.69;73.59;100597.66;10251194;29;20408;-82
2023/01/04 08:20:01;;;;;;;9.32;6.07;;;;;;;9.54;72.53;100528.44;10250183;29;20522;-82
2023/01/04 08:25:02;;;;;;;8.80;5.93;;;;;;;10.09;71.40;100604.19;10252733;29;20054;-81
2023/01/04 08:30:03;;;;;;;10.50;6.57;;;;;;;9.63;69.70;100521.34;10251559;28;20047;-81
2023/01/04 08:35:05;;;;;;;12.27;6.03;;;;;;;9.88;68.83;100540.88;10250996;29;20134;-80
2023/01/04 08:40:06;;;;;;;9.98;7.07;;;;;;;10.44;67.79;100594.38;10237079;29;20511;-81
2023/01/04 08:45:07;;;;;;;11.27;6.82;;;;;;;10.48;67.61;100554.06;10207906;29;20071;-80
2023/01/04 08:50:08;;;;;;;10.38;7.55;;;;;;;10.78;68.04;100602.31;10194435;29;20079;-81
2023/01/04 08:55:09;;;;;;;19.23;8.85;;;;;;;10.28;68.31;100526.13;10211261;29;20055;-82
2023/01/04 09:00:11;;;;;;;279.40;134.10;;;;;;;10.32;68.42;100531.94;10210481;29;20508;-80
2023/01/04 09:05:11;;;;;;;22.20;13.10;;;;;;;10.51;68.46;100564.38;10221841;29;20143;-82
2023/01/04 09:10:12;;;;;;;18.55;11.02;;;;;;;10.65;68.47;100586.84;10255956;28;20051;-90
2023/01/04 09:21:27;;;;;;;53.22;30.27;;;;;;;10.16;68.27;100487.56;10255564;28;20086;-78
2023/01/04 09:26:27;;;;;;;32.08;17.27;;;;;;;10.54;68.05;100544.63;10257270;29;20096;-78
2023/01/04 09:31:28;;;;;;;29.35;15.90;;;;;;;10.62;68.02;100547.31;10241176;29;20043;-79
2023/01/04 09:36:29;;;;;;;16.15;9.63;;;;;;;10.48;67.69;100516.06;10257302;29;20066;-79
2023/01/04 09:41:43;;;;;;;29.33;15.02;;;;;;;10.63;67.24;100529.53;10245270;29;20611;-80
2023/01/04 09:47:04;;;;;;;31.38;16.30;;;;;;;10.86;67.32;100553.63;10217787;29;20086;-79
2023/01/04 09:52:08;;;;;;;19.45;10.30;;;;;;;10.93;67.18;100544.84;10217404;29;20048;-79
2023/01/04 09:57:22;;;;;;;21.13;12.27;;;;;;;10.92;67.34;100537.88;10217713;29;20055;-79
2023/01/04 10:02:35;;;;;;;16.55;10.50;;;;;;;11.05;67.70;100552.50;10217277;29;20051;-80
2023/01/04 10:07:36;;;;;;;29.70;16.20;;;;;;;10.50;67.63;100451.16;10220627;29;20451;-81
2023/01/04 10:13:12;;;;;;;19.27;12.70;;;;;;;10.64;67.83;100464.78;10222926;29;20066;-84
2023/01/04 10:18:16;;;;;;;81.63;49.78;;;;;;;11.17;68.01;100540.53;10239580;28;20130;-89
2023/01/04 10:23:17;;;;;;;28.85;19.55;;;;;;;11.17;68.06;100537.88;10259498;29;20050;-87
2023/01/04 10:28:32;;;;;;;14.90;11.02;;;;;;;10.27;67.58;100399.69;10260866;29;20138;-93
2023/01/04 10:33:47;;;;;;;18.42;12.38;;;;;;;10.76;68.04;100467.94;10258721;29;20173;-87
2023/01/04 10:39:11;;;;;;;17.77;11.30;;;;;;;11.32;67.80;100541.50;10258585;29;20078;-88
2023/01/04 10:44:33;;;;;;;26.30;13.38;;;;;;;10.75;67.76;100467.09;10265187;29;20525;-86
2023/01/04 10:49:43;;;;;;;19.45;12.68;;;;;;;10.69;68.50;100462.47;10257295;29;20051;-86
2023/01/04 10:54:53;;;;;;;19.30;14.05;;;;;;;10.47;68.71;100443.53;10257759;29;20094;-87
2023/01/04 11:00:06;;;;;;;22.27;14.10;;;;;;;10.26;68.82;100427.19;10257211;29;20100;-85
2023/01/04 11:05:26;;;;;;;19.42;11.90;;;;;;;10.86;68.79;100538.53;10255732;29;20098;-87
2023/01/04 11:10:42;;;;;;;15.68;10.20;;;;;;;10.41;69.70;100525.66;10236041;29;20091;-85
2023/01/04 11:15:44;;;;;;;15.63;10.73;;;;;;;9.20;70.19;100373.81;10238935;29;20089;-80
2023/01/04 11:20:45;;;;;;;16.17;10.70;;;;;;;9.43;70.65;100429.75;10225418;29;20071;-82
2023/01/04 11:25:58;;;;;;;14.80;10.00;;;;;;;9.97;71.17;100529.31;10232566;29;20055;-81
2023/01/04 11:31:08;;;;;;;15.43;10.82;;;;;;;9.26;71.63;100434.13;10228060;28;20078;-80
2023/01/04 11:36:29;;;;;;;14.73;10.98;;;;;;;9.44;71.53;100477.31;10231074;29;20609;-81
2023/01/04 11:41:30;;;;;;;14.50;11.10;;;;;;;9.77;72.09;100534.03;10231707;29;20406;-81
2023/01/04 11:46:33;;;;;;;13.48;10.50;;;;;;;9.74;72.18;100534.34;10240450;29;20047;-81
2023/01/04 11:51:35;;;;;;;15.50;11.00;;;;;;;9.75;72.53;100540.47;10213549;29;20075;-80
2023/01/04 11:56:36;;;;;;;21.17;12.45;;;;;;;9.13;72.44;100408.06;10213172;29;20526;-81
2023/01/04 12:01:43;;;;;;;17.05;11.80;;;;;;;9.91;72.57;100537.09;10225451;29;20055;-81
2023/01/04 12:06:44;;;;;;;16.63;12.38;;;;;;;9.68;72.91;100512.91;10252091;29;20090;-81
2023/01/04 12:11:56;;;;;;;14.73;10.75;;;;;;;9.59;73.18;100520.00;10252440;29;20061;-81
2023/01/04 12:17:22;;;;;;;17.23;11.27;;;;;;;9.56;73.56;100542.34;10251694;29;20107;-81
2023/01/04 12:22:38;;;;;;;16.45;11.63;;;;;;;9.26;74.02;100518.97;10216681;29;20062;-82
2023/01/04 12:27:49;;;;;;;19.40;11.77;;;;;;;9.29;74.27;100550.47;10195477;29;20058;-83
2023/01/04 12:32:50;;;;;;;14.15;9.95;;;;;;;9.05;74.46;100557.22;10226308;29;20051;-82
2023/01/04 12:37:51;;;;;;;15.20;10.48;;;;;;;8.96;75.09;100568.75;10234899;29;20066;-82
2023/01/04 12:43:16;;;;;;;17.85;11.55;;;;;;;8.85;76.66;100568.97;10250569;28;20055;-81
2023/01/04 12:53:56;;;;;;;15.18;11.00;;;;;;;8.36;76.16;100553.38;10239022;29;20047;-80
2023/01/04 12:59:12;;;;;;;16.30;11.90;;;;;;;8.15;77.65;100532.47;10244622;29;20051;-80
2023/01/04 13:04:36;;;;;;;17.38;12.40;;;;;;;8.37;78.04;100583.34;10235452;29;20051;-81
2023/01/04 13:09:42;;;;;;;21.13;13.27;;;;;;;7.70;77.94;100498.84;10238224;29;20110;-81
2023/01/04 13:14:48;;;;;;;17.20;12.25;;;;;;;7.93;78.72;100546.09;10237051;29;20625;-81
2023/01/04 13:19:49;;;;;;;22.48;13.52;;;;;;;7.45;78.52;100484.50;10238768;29;20082;-81
2023/01/04 13:24:50;;;;;;;17.98;12.90;;;;;;;7.73;78.72;100556.75;10234574;29;20146;-81
2023/01/04 13:29:52;;;;;;;22.75;14.40;;;;;;;6.77;79.08;100415.97;10230875;29;20048;-81
2023/01/04 13:34:58;;;;;;;23.77;16.05;;;;;;;7.66;80.00;100589.22;10237373;29;20146;-81
2023/01/04 13:40:01;;;;;;;29.65;19.27;;;;;;;7.29;80.53;100535.28;10235610;29;20051;-81
2023/01/04 13:45:20;;;;;;;21.35;14.90;;;;;;;7.50;82.01;100581.84;10243336;28;20051;-80
2023/01/04 13:50:34;;;;;;;18.33;13.65;;;;;;;7.36;81.76;100564.63;10235626;29;20047;-81
2023/01/04 13:55:37;;;;;;;18.58;13.35;;;;;;;7.26;81.20;100572.56;10234637;28;20602;-81
2023/01/04 14:00:45;;;;;;;19.25;13.55;;;;;;;6.99;82.88;100556.59;10235337;29;20406;-81
2023/01/04 14:05:49;;;;;;;16.08;12.40;;;;;;;6.55;82.40;100519.19;10223131;28;20059;-81
2023/01/04 14:10:50;;;;;;;17.77;13.13;;;;;;;6.66;82.58;100531.44;10226805;28;20709;-82
2023/01/04 14:16:14;;;;;;;28.23;15.75;;;;;;;6.83;84.21;100555.34;10209859;29;20052;-81
2023/01/04 14:21:16;;;;;;;;;;;;;;;7.09;83.69;100583.84;10235634;28;20320;-81
2023/01/04 14:26:31;;;;;;;19.25;14.25;;;;;;;6.66;84.24;100553.38;10216804;29;19977;-81
2023/01/04 14:31:35;;;;;;;23.75;14.57;;;;;;;5.63;82.76;100392.84;10235027;29;20039;-84
2023/01/04 14:36:38;;;;;;;19.38;12.75;;;;;;;6.15;83.12;100477.91;10241696;29;20110;-82
2023/01/04 14:46:42;;;;;;;19.48;12.70;;;;;;;6.92;83.28;100577.44;10493246;28;20436;-82
2023/01/04 14:51:46;;;;;;;15.05;11.73;;;;;;;6.52;83.30;100493.94;10490665;28;20052;-82
2023/01/04 14:56:47;;;;;;;;;;;;;;;7.34;83.60;100594.81;10489003;28;20041;-81
2023/01/04 15:01:49;;;;;;;19.85;11.35;;;;;;;7.22;81.96;100594.97;10500025;28;19924;-82
2023/01/04 15:06:57;;;;;;;17.33;12.65;;;;;;;6.96;82.05;100554.22;10501588;28;20039;-82
2023/01/04 15:11:58;;;;;;;20.80;12.45;;;;;;;7.25;82.28;100602.59;10480079;28;20385;-82
2023/01/04 15:16:58;;;;;;;14.93;10.98;;;;;;;7.21;82.11;100608.31;10477541;28;20041;-79
2023/01/04 15:21:59;;;;;;;14.25;10.88;;;;;;;6.09;81.81;100423.88;10471350;28;20045;-79
2023/01/04 15:35:02;;;;;;;18.02;10.93;;;;;;;6.67;81.98;100548.94;10470155;27;20405;-80
2023/01/04 15:40:03;;;;;;;16.85;11.20;;;;;;;6.75;82.42;100560.47;10460750;28;20060;-79
2023/01/04 15:45:05;;;;;;;17.08;11.27;;;;;;;6.46;82.70;100530.56;10442409;28;20148;-80
2023/01/04 15:50:06;;;;;;;15.88;11.85;;;;;;;6.70;82.78;100572.41;10383473;28;20512;-85
2023/01/04 15:55:08;;;;;;;30.08;18.92;;;;;;;6.92;83.39;100598.59;10383193;28;20062;-87
2023/01/04 16:00:09;;;;;;;20.92;14.63;;;;;;;6.61;83.05;100550.31;10382433;28;20045;-86
2023/01/04 16:05:10;;;;;;;18.73;13.40;;;;;;;7.00;82.91;100609.28;10394411;28;20041;-77
2023/01/04 16:10:11;;;;;;;18.02;13.10;;;;;;;6.77;82.87;100541.88;10391468;28;20507;-84
2023/01/04 16:15:14;;;;;;;22.83;14.90;;;;;;;7.30;82.99;100616.25;10402161;28;20045;-76
2023/01/04 16:20:16;;;;;;;17.85;14.27;;;;;;;7.53;83.04;100613.28;10384796;28;20120;-80
2023/01/04 16:25:17;;;;;;;17.38;12.57;;;;;;;7.72;82.50;100586.81;10376765;28;20041;-81
2023/01/04 16:30:19;;;;;;;17.05;11.90;;;;;;;7.98;81.97;100596.75;10386020;28;20062;-79
2023/01/04 16:35:19;;;;;;;17.55;12.07;;;;;;;7.64;81.73;100522.41;10380522;28;20041;-79
2023/01/04 16:40:21;;;;;;;18.98;12.85;;;;;;;8.28;81.91;100615.97;10378621;28;20508;-77
2023/01/04 16:45:21;;;;;;;19.58;13.93;;;;;;;8.30;82.43;100622.81;10359373;28;20042;-78
2023/01/04 16:50:22;;;;;;;21.30;15.60;;;;;;;8.16;82.72;100602.09;10354724;28;20043;-76
2023/01/04 16:55:23;;;;;;;23.75;15.68;;;;;;;8.24;82.97;100616.28;10391123;28;20060;-85
2023/01/04 17:00:25;;;;;;;24.73;17.10;;;;;;;8.19;83.63;100628.28;10398657;28;20524;-89
2023/01/04 17:05:26;;;;;;;26.50;17.90;;;;;;;8.30;83.79;100632.56;10400231;28;20049;-78
2023/01/04 17:10:27;;;;;;;25.55;17.27;;;;;;;8.15;84.00;100625.09;10410135;28;20037;-82
2023/01/04 17:15:27;;;;;;;23.30;16.02;;;;;;;8.05;84.08;100607.56;10404939;28;20656;-81
2023/01/04 17:20:28;;;;;;;26.58;18.42;;;;;;;7.42;84.71;100516.50;10403680;28;20560;-80
2023/01/04 17:25:30;;;;;;;26.10;17.38;;;;;;;7.83;85.48;100592.91;10405509;28;20413;-85
2023/01/04 17:30:30;;;;;;;26.38;18.10;;;;;;;8.20;86.37;100665.19;10400279;28;20065;-80
2023/01/04 17:35:35;;;;;;;26.65;18.58;;;;;;;7.98;90.99;100670.81;10416043;28;20073;-82
2023/01/04 17:40:36;;;;;;;25.27;19.13;;;;;;;7.85;91.19;100678.25;10404522;28;20511;-85
2023/01/04 17:45:37;;;;;;;28.17;19.08;;;;;;;7.40;93.16;100621.53;10412302;28;20038;-83
2023/01/04 17:50:38;;;;;;;28.92;19.02;;;;;;;7.19;94.24;100604.97;10417862;28;20037;-81
2023/01/04 17:55:38;;;;;;;28.90;19.65;;;;;;;7.64;94.95;100687.16;10412714;28;20053;-87
2023/01/04 18:00:39;;;;;;;28.52;20.83;;;;;;;7.59;95.87;100697.31;10415187;28;20054;-88
2023/01/04 18:05:48;;;;;;;29.95;20.98;;;;;;;7.66;99.35;100702.91;10415421;28;20060;-89
2023/01/04 18:10:49;;;;;;;30.95;21.25;;;;;;;7.05;97.08;100617.63;10403615;28;20082;-88
2023/01/04 18:15:49;;;;;;;29.63;21.35;;;;;;;7.67;97.82;100710.69;10416433;28;20073;-89
2023/01/04 18:20:51;;;;;;;29.33;20.60;;;;;;;7.41;97.95;100677.84;10411298;28;20044;-91
2023/01/04 18:25:52;;;;;;;26.33;19.48;;;;;;;7.42;97.82;100684.78;10378329;28;20180;-87
2023/01/04 18:30:53;;;;;;;24.48;18.40;;;;;;;7.10;97.81;100656.84;10375905;28;20156;-88
2023/01/04 18:35:54;;;;;;;25.52;17.40;;;;;;;6.59;98.02;100602.44;10375869;28;20049;-90
2023/01/04 18:40:55;;;;;;;22.52;17.00;;;;;;;6.80;97.36;100647.22;10375330;28;20413;-87
2023/01/04 18:45:55;;;;;;;23.92;17.58;;;;;;;6.53;96.86;100609.09;10373922;28;20042;-87
2023/01/04 18:51:04;;;;;;;22.30;15.75;;;;;;;7.04;97.03;100700.50;10376597;28;20030;-90
2023/01/04 18:56:06;;;;;;;20.67;15.57;;;;;;;7.09;96.13;100710.66;10390301;28;20125;-90
2023/01/04 19:01:10;;;;;;;22.30;15.68;;;;;;;7.05;95.67;100699.50;10389739;28;20591;-89
2023/01/04 19:06:21;;;;;;;23.85;16.50;;;;;;;6.96;95.27;100705.63;10416271;28;20052;-91
2023/01/04 19:11:22;;;;;;;18.65;15.05;;;;;;;6.75;95.52;100687.22;10406619;28;20049;-90
2023/01/04 19:16:28;;;;;;;20.63;16.15;;;;;;;6.07;94.71;100583.22;10415548;28;20127;-92
2023/01/04 19:21:29;;;;;;;19.90;15.63;;;;;;;6.73;95.33;100709.44;10401583;28;20041;-92
2023/01/04 19:26:29;;;;;;;22.48;16.92;;;;;;;6.82;94.58;100735.91;10414760;28;20408;-92
2023/01/04 19:31:30;;;;;;;21.63;16.42;;;;;;;6.80;94.79;100731.72;10403254;28;20479;-93
2023/01/04 19:36:31;;;;;;;25.35;16.08;;;;;;;6.75;95.18;100729.47;10405971;28;20043;-91
2023/01/04 19:41:33;;;;;;;23.17;16.17;;;;;;;6.65;94.80;100709.28;10401698;28;20072;-92
2023/01/04 19:46:37;;;;;;;23.38;16.35;;;;;;;6.07;95.25;100628.94;10402823;28;20507;-91
2023/01/04 19:51:38;;;;;;;21.17;16.13;;;;;;;5.98;94.91;100610.41;10407156;28;20065;-93
2023/01/04 19:56:39;;;;;;;20.30;16.55;;;;;;;6.27;94.91;100650.09;10394694;28;20133;-92
2023/01/04 20:01:39;;;;;;;22.48;16.27;;;;;;;6.19;94.62;100642.84;10399793;28;20038;-89
2023/01/04 20:06:40;;;;;;;21.15;16.13;;;;;;;6.19;93.91;100656.03;10421173;28;20041;-90
2023/01/04 20:11:41;;;;;;;22.77;16.85;;;;;;;6.65;94.67;100733.06;10410685;28;20203;-92
2023/01/04 20:16:42;;;;;;;24.65;16.27;;;;;;;6.17;94.23;100648.25;10412150;28;20124;-89
2023/01/04 20:21:43;;;;;;;22.23;17.00;;;;;;;6.64;94.81;100713.72;10403406;28;20045;-90
2023/01/04 20:26:45;;;;;;;25.42;17.85;;;;;;;6.07;94.69;100609.59;10424138;28;20128;-90
2023/01/04 20:31:46;;;;;;;22.88;16.45;;;;;;;6.60;94.98;100721.06;10418239;28;20049;-92
2023/01/04 20:36:47;;;;;;;24.90;16.92;;;;;;;6.24;95.40;100682.03;10417571;28;20041;-92
2023/01/04 20:47:08;;;;;;;22.83;16.08;;;;;;;6.06;95.90;100693.19;10421493;28;20128;-94
2023/01/04 20:52:09;;;;;;;22.75;16.52;;;;;;;6.13;96.04;100717.22;10417888;28;20417;-94
2023/01/04 20:57:10;;;;;;;19.83;15.55;;;;;;;6.22;95.86;100731.44;10419886;28;20041;-95
2023/01/04 21:02:12;;;;;;;18.90;14.77;;;;;;;6.26;96.16;100728.41;10419650;28;20044;-94
2023/01/04 21:07:13;;;;;;;21.90;16.35;;;;;;;5.80;96.50;100653.16;10405341;28;20038;-91
2023/01/04 21:12:13;;;;;;;19.88;14.77;;;;;;;6.14;96.34;100703.09;10393808;28;20154;-92
2023/01/04 21:17:14;;;;;;;20.08;14.60;;;;;;;6.28;96.97;100734.41;10393480;28;20045;-93
2023/01/04 21:22:15;;;;;;;20.42;14.75;;;;;;;5.78;96.73;100646.38;10399148;28;20108;-94
2023/01/04 21:27:16;;;;;;;18.77;13.50;;;;;;;6.29;96.62;100720.25;10407887;28;20100;-93
2023/01/04 21:32:17;;;;;;;19.85;14.20;;;;;;;6.27;96.31;100713.41;10417634;28;20558;-93
2023/01/04 21:37:18;;;;;;;18.95;14.02;;;;;;;5.84;96.28;100636.13;10433159;28;20143;-93
2023/01/04 21:42:19;;;;;;;21.58;12.98;;;;;;;5.52;96.03;100585.31;10412918;28;20037;-91
2023/01/04 21:47:20;;;;;;;19.48;14.00;;;;;;;5.69;95.93;100633.00;10376023;28;20038;-91
2023/01/04 21:52:22;;;;;;;18.92;13.55;;;;;;;5.78;96.26;100665.66;10397678;28;20044;-91
2023/01/04 21:57:23;;;;;;;17.55;12.73;;;;;;;6.26;96.01;100746.06;10395400;28;20560;-93
2023/01/04 22:02:24;;;;;;;18.10;13.23;;;;;;;5.58;96.50;100617.22;10391390;28;20107;-93
2023/01/04 22:07:25;;;;;;;19.65;14.32;;;;;;;5.77;96.09;100636.75;10404029;28;20041;-93
2023/01/04 22:12:25;;;;;;;18.13;13.25;;;;;;;5.34;96.03;100556.91;10415408;28;20495;-93
2023/01/04 22:17:26;;;;;;;19.67;13.63;;;;;;;6.34;95.71;100733.88;10415575;28;20041;-90
2023/01/04 22:22:29;;;;;;;20.15;13.95;;;;;;;5.71;95.35;100644.25;10415308;28;20556;-90
2023/01/04 22:27:30;;;;;;;19.20;13.52;;;;;;;6.31;96.00;100743.84;10414901;28;20030;-91
2023/01/04 22:32:31;;;;;;;21.23;14.70;;;;;;;5.67;94.94;100639.34;10414802;28;20057;-88
2023/01/04 22:37:32;;;;;;;19.92;14.40;;;;;;;5.28;95.23;100575.84;10414046;28;20033;-88
2023/01/04 22:42:33;;;;;;;19.00;13.38;;;;;;;6.19;94.92;100716.69;10412100;28;20407;-86
2023/01/04 22:47:34;;;;;;;19.77;14.13;;;;;;;6.22;94.83;100734.91;10403824;28;20046;-88
2023/01/04 22:52:35;;;;;;;22.08;14.35;;;;;;;5.44;94.41;100601.75;10389140;28;20041;-87
2023/01/04 22:57:36;;;;;;;19.33;12.85;;;;;;;6.04;94.26;100702.19;10399890;28;20040;-87
2023/01/04 23:02:37;;;;;;;20.13;14.18;;;;;;;5.93;94.41;100697.81;10388408;28;20041;-88
2023/01/04 23:07:38;;;;;;;17.42;12.75;;;;;;;5.73;93.99;100654.66;10371316;28;20062;-88
2023/01/04 23:12:38;;;;;;;21.08;14.73;;;;;;;6.11;94.19;100741.09;10373355;28;20156;-87
2023/01/04 23:17:39;;;;;;;19.27;13.57;;;;;;;5.74;94.44;100695.84;10372766;28;20116;-87
2023/01/04 23:22:40;;;;;;;20.83;13.18;;;;;;;6.00;94.51;100735.88;10372895;28;20042;-87
2023/01/04 23:27:41;;;;;;;20.45;13.73;;;;;;;5.51;93.76;100652.16;10387289;28;20111;-88
2023/01/04 23:32:42;;;;;;;20.92;13.75;;;;;;;5.76;93.72;100701.84;10372725;28;20153;-89
2023/01/04 23:37:43;;;;;;;23.75;14.05;;;;;;;5.78;93.94;100702.56;10372659;28;20136;-90
2023/01/04 23:42:45;;;;;;;17.17;12.20;;;;;;;5.85;93.75;100737.16;10388174;28;20115;-88
2023/01/04 23:47:47;;;;;;;18.13;12.48;;;;;;;6.22;93.29;100795.56;10387891;28;20038;-90
2023/01/04 23:52:47;;;;;;;20.17;13.00;;;;;;;6.18;93.50;100797.66;10391056;28;20074;-91
2023/01/04 23:57:48;;;;;;;20.38;13.50;;;;;;;5.22;93.51;100629.88;10380388;28;20104;-88
